sensor_id;sensor_type;location;lat;lon;timestamp;temperature;humidity
51719;DHT22;37795;53.236;5.704;2023-03-01T00:01:06;0.30;76.30
51719;DHT22;37795;53.236;5.704;2023-03-01T00:03:32;0.00;76.40
51719;DHT22;37795;53.236;5.704;2023-03-01T00:05:59;0.20;77.30
51719;DHT22;37795;53.236;5.704;2023-03-01T00:08:25;0.30;77.60
51719;DHT22;37795;53.236;5.704;2023-03-01T00:13:34;0.60;77.70
51719;DHT22;37795;53.236;5.704;2023-03-01T00:16:07;0.70;77.70
51719;DHT22;37795;53.236;5.704;2023-03-01T00:18:33;0.80;77.70
51719;DHT22;37795;53.236;5.704;2023-03-01T00:21:00;0.60;77.50
51719;DHT22;37795;53.236;5.704;2023-03-01T00:23:26;0.60;77.50
51719;DHT22;37795;53.236;5.704;2023-03-01T00:25:52;0.80;77.10
51719;DHT22;37795;53.236;5.704;2023-03-01T00:28:18;0.60;76.00
51719;DHT22;37795;53.236;5.704;2023-03-01T00:30:44;0.40;75.60
51719;DHT22;37795;53.236;5.704;2023-03-01T00:33:10;0.40;75.60
51719;DHT22;37795;53.236;5.704;2023-03-01T00:35:36;0.40;75.50
51719;DHT22;37795;53.236;5.704;2023-03-01T00:38:02;0.30;75.20
51719;DHT22;37795;53.236;5.704;2023-03-01T00:40:31;0.20;74.70
51719;DHT22;37795;53.236;5.704;2023-03-01T00:42:57;0.00;75.00
51719;DHT22;37795;53.236;5.704;2023-03-01T00:45:23;0.00;75.10
51719;DHT22;37795;53.236;5.704;2023-03-01T00:47:50;0.00;75.20
51719;DHT22;37795;53.236;5.704;2023-03-01T00:50:17;-0.10;75.70
51719;DHT22;37795;53.236;5.704;2023-03-01T00:52:42;0.10;76.20
51719;DHT22;37795;53.236;5.704;2023-03-01T00:55:08;0.20;76.70
51719;DHT22;37795;53.236;5.704;2023-03-01T00:57:34;0.20;76.90
51719;DHT22;37795;53.236;5.704;2023-03-01T01:00:00;0.30;77.00
51719;DHT22;37795;53.236;5.704;2023-03-01T01:02:26;0.30;77.10
51719;DHT22;37795;53.236;5.704;2023-03-01T01:04:52;0.30;77.20
51719;DHT22;37795;53.236;5.704;2023-03-01T01:07:18;0.40;77.40
51719;DHT22;37795;53.236;5.704;2023-03-01T01:09:46;0.30;77.40
51719;DHT22;37795;53.236;5.704;2023-03-01T01:12:12;0.30;77.50
51719;DHT22;37795;53.236;5.704;2023-03-01T01:14:38;0.30;77.60
51719;DHT22;37795;53.236;5.704;2023-03-01T01:17:04;0.20;77.70
51719;DHT22;37795;53.236;5.704;2023-03-01T01:19:30;0.20;77.80
51719;DHT22;37795;53.236;5.704;2023-03-01T01:21:55;0.30;77.90
51719;DHT22;37795;53.236;5.704;2023-03-01T01:24:21;0.20;78.00
51719;DHT22;37795;53.236;5.704;2023-03-01T01:26:47;0.20;78.10
51719;DHT22;37795;53.236;5.704;2023-03-01T01:29:13;0.10;78.10
51719;DHT22;37795;53.236;5.704;2023-03-01T01:31:40;0.10;78.20
51719;DHT22;37795;53.236;5.704;2023-03-01T01:34:08;0.10;78.30
51719;DHT22;37795;53.236;5.704;2023-03-01T01:36:36;0.00;78.30
51719;DHT22;37795;53.236;5.704;2023-03-01T01:39:02;0.00;78.30
51719;DHT22;37795;53.236;5.704;2023-03-01T01:41:29;0.00;78.30
51719;DHT22;37795;53.236;5.704;2023-03-01T01:46:41;0.00;78.40
51719;DHT22;37795;53.236;5.704;2023-03-01T01:51:44;0.10;78.20
51719;DHT22;37795;53.236;5.704;2023-03-01T01:54:19;0.10;78.10
51719;DHT22;37795;53.236;5.704;2023-03-01T01:56:53;0.10;78.00
51719;DHT22;37795;53.236;5.704;2023-03-01T01:59:20;0.00;77.80
51719;DHT22;37795;53.236;5.704;2023-03-01T02:01:51;0.00;77.70
51719;DHT22;37795;53.236;5.704;2023-03-01T02:04:17;0.10;77.70
51719;DHT22;37795;53.236;5.704;2023-03-01T02:06:49;0.10;77.70
51719;DHT22;37795;53.236;5.704;2023-03-01T02:09:18;0.10;77.60
51719;DHT22;37795;53.236;5.704;2023-03-01T02:11:47;0.00;77.60
51719;DHT22;37795;53.236;5.704;2023-03-01T02:14:14;0.00;77.50
51719;DHT22;37795;53.236;5.704;2023-03-01T02:16:41;0.00;77.30
51719;DHT22;37795;53.236;5.704;2023-03-01T02:19:09;0.00;77.30
51719;DHT22;37795;53.236;5.704;2023-03-01T02:22:02;0.00;77.20
51719;DHT22;37795;53.236;5.704;2023-03-01T02:24:44;-0.10;77.30
51719;DHT22;37795;53.236;5.704;2023-03-01T02:27:13;-0.20;77.10
51719;DHT22;37795;53.236;5.704;2023-03-01T02:29:39;-0.10;77.20
51719;DHT22;37795;53.236;5.704;2023-03-01T02:32:05;-0.10;77.20
51719;DHT22;37795;53.236;5.704;2023-03-01T02:34:31;-0.20;77.10
51719;DHT22;37795;53.236;5.704;2023-03-01T02:37:01;-0.20;77.00
51719;DHT22;37795;53.236;5.704;2023-03-01T02:39:52;-0.20;77.00
51719;DHT22;37795;53.236;5.704;2023-03-01T02:42:23;-0.20;76.90
51719;DHT22;37795;53.236;5.704;2023-03-01T02:44:50;-0.20;77.00
51719;DHT22;37795;53.236;5.704;2023-03-01T02:47:16;-0.20;77.00
51719;DHT22;37795;53.236;5.704;2023-03-01T02:49:41;-0.60;76.30
51719;DHT22;37795;53.236;5.704;2023-03-01T02:55:13;-1.20;77.90
51719;DHT22;37795;53.236;5.704;2023-03-01T02:57:42;-1.50;78.30
51719;DHT22;37795;53.236;5.704;2023-03-01T03:00:12;-1.70;78.70
51719;DHT22;37795;53.236;5.704;2023-03-01T03:02:46;-1.90;79.80
51719;DHT22;37795;53.236;5.704;2023-03-01T03:05:18;-2.00;80.30
51719;DHT22;37795;53.236;5.704;2023-03-01T03:07:46;-2.00;80.90
51719;DHT22;37795;53.236;5.704;2023-03-01T03:10:19;-2.00;81.10
51719;DHT22;37795;53.236;5.704;2023-03-01T03:12:49;-1.90;81.40
51719;DHT22;37795;53.236;5.704;2023-03-01T03:15:15;-2.20;81.40
51719;DHT22;37795;53.236;5.704;2023-03-01T03:17:42;-2.10;81.90
51719;DHT22;37795;53.236;5.704;2023-03-01T03:20:10;-2.20;82.10
51719;DHT22;37795;53.236;5.704;2023-03-01T03:22:38;-2.30;82.80
51719;DHT22;37795;53.236;5.704;2023-03-01T03:25:08;-2.00;83.30
51719;DHT22;37795;53.236;5.704;2023-03-01T03:27:41;-1.80;83.30
51719;DHT22;37795;53.236;5.704;2023-03-01T03:30:10;-1.70;83.30
51719;DHT22;37795;53.236;5.704;2023-03-01T03:32:41;-1.60;83.30
51719;DHT22;37795;53.236;5.704;2023-03-01T03:35:09;-1.30;83.40
51719;DHT22;37795;53.236;5.704;2023-03-01T03:37:39;-1.20;83.30
51719;DHT22;37795;53.236;5.704;2023-03-01T03:40:25;-1.20;82.90
51719;DHT22;37795;53.236;5.704;2023-03-01T03:42:50;-1.40;82.70
51719;DHT22;37795;53.236;5.704;2023-03-01T03:45:17;-1.40;82.90
51719;DHT22;37795;53.236;5.704;2023-03-01T03:47:43;-1.10;83.10
51719;DHT22;37795;53.236;5.704;2023-03-01T03:50:14;-1.20;82.90
51719;DHT22;37795;53.236;5.704;2023-03-01T03:52:40;-0.90;83.00
51719;DHT22;37795;53.236;5.704;2023-03-01T03:55:07;-0.80;82.90
51719;DHT22;37795;53.236;5.704;2023-03-01T03:57:42;-0.80;82.80
51719;DHT22;37795;53.236;5.704;2023-03-01T04:00:12;-0.70;82.70
51719;DHT22;37795;53.236;5.704;2023-03-01T04:02:42;-0.60;82.60
51719;DHT22;37795;53.236;5.704;2023-03-01T04:05:09;-0.60;82.40
51719;DHT22;37795;53.236;5.704;2023-03-01T04:07:36;-0.50;82.20
51719;DHT22;37795;53.236;5.704;2023-03-01T04:10:08;-0.50;82.10
51719;DHT22;37795;53.236;5.704;2023-03-01T04:12:34;-0.50;81.90
51719;DHT22;37795;53.236;5.704;2023-03-01T04:15:01;-0.40;81.80
51719;DHT22;37795;53.236;5.704;2023-03-01T04:17:27;-0.40;81.80
51719;DHT22;37795;53.236;5.704;2023-03-01T04:19:53;-0.40;81.60
51719;DHT22;37795;53.236;5.704;2023-03-01T04:22:18;-0.50;81.60
51719;DHT22;37795;53.236;5.704;2023-03-01T04:24:45;-0.50;81.40
51719;DHT22;37795;53.236;5.704;2023-03-01T04:27:11;-0.50;81.50
51719;DHT22;37795;53.236;5.704;2023-03-01T04:29:37;-0.40;81.50
51719;DHT22;37795;53.236;5.704;2023-03-01T04:32:03;-0.30;81.30
51719;DHT22;37795;53.236;5.704;2023-03-01T04:34:29;-0.40;81.10
51719;DHT22;37795;53.236;5.704;2023-03-01T04:36:55;-0.50;80.80
51719;DHT22;37795;53.236;5.704;2023-03-01T04:39:21;-0.50;80.80
51719;DHT22;37795;53.236;5.704;2023-03-01T04:41:47;-0.50;80.70
51719;DHT22;37795;53.236;5.704;2023-03-01T04:44:13;-0.30;80.80
51719;DHT22;37795;53.236;5.704;2023-03-01T04:46:39;-0.30;80.50
51719;DHT22;37795;53.236;5.704;2023-03-01T04:49:05;-0.50;80.30
51719;DHT22;37795;53.236;5.704;2023-03-01T04:51:31;-0.50;80.10
51719;DHT22;37795;53.236;5.704;2023-03-01T04:53:59;-0.50;80.10
51719;DHT22;37795;53.236;5.704;2023-03-01T04:56:26;-0.40;80.10
51719;DHT22;37795;53.236;5.704;2023-03-01T04:58:53;-0.50;80.00
51719;DHT22;37795;53.236;5.704;2023-03-01T05:01:20;-0.50;79.90
51719;DHT22;37795;53.236;5.704;2023-03-01T05:03:48;-0.50;79.90
51719;DHT22;37795;53.236;5.704;2023-03-01T05:06:14;-0.40;79.90
51719;DHT22;37795;53.236;5.704;2023-03-01T05:08:41;-0.50;79.70
51719;DHT22;37795;53.236;5.704;2023-03-01T05:11:08;-0.40;79.80
51719;DHT22;37795;53.236;5.704;2023-03-01T05:13:35;-0.40;79.70
51719;DHT22;37795;53.236;5.704;2023-03-01T05:16:02;-0.20;79.90
51719;DHT22;37795;53.236;5.704;2023-03-01T05:18:29;-0.10;79.40
51719;DHT22;37795;53.236;5.704;2023-03-01T05:21:01;-0.40;78.70
51719;DHT22;37795;53.236;5.704;2023-03-01T05:23:31;-0.50;78.90
51719;DHT22;37795;53.236;5.704;2023-03-01T05:25:59;-0.40;79.00
51719;DHT22;37795;53.236;5.704;2023-03-01T05:28:25;-0.40;78.80
51719;DHT22;37795;53.236;5.704;2023-03-01T05:30:52;-0.50;78.70
51719;DHT22;37795;53.236;5.704;2023-03-01T05:33:18;-0.60;78.70
51719;DHT22;37795;53.236;5.704;2023-03-01T05:35:45;-0.40;79.00
51719;DHT22;37795;53.236;5.704;2023-03-01T05:38:12;-0.50;78.70
51719;DHT22;37795;53.236;5.704;2023-03-01T05:40:42;-0.70;78.30
51719;DHT22;37795;53.236;5.704;2023-03-01T05:43:09;-0.70;78.40
51719;DHT22;37795;53.236;5.704;2023-03-01T05:45:37;-0.60;78.60
51719;DHT22;37795;53.236;5.704;2023-03-01T05:48:03;-0.60;78.50
51719;DHT22;37795;53.236;5.704;2023-03-01T05:50:34;-1.10;78.10
51719;DHT22;37795;53.236;5.704;2023-03-01T05:53:06;-1.00;78.60
51719;DHT22;37795;53.236;5.704;2023-03-01T05:55:34;-0.90;79.00
51719;DHT22;37795;53.236;5.704;2023-03-01T05:58:00;-1.00;78.80
51719;DHT22;37795;53.236;5.704;2023-03-01T06:00:27;-0.80;79.30
51719;DHT22;37795;53.236;5.704;2023-03-01T06:02:56;-0.90;79.00
51719;DHT22;37795;53.236;5.704;2023-03-01T06:05:22;-0.90;79.10
51719;DHT22;37795;53.236;5.704;2023-03-01T06:07:48;-0.90;79.00
51719;DHT22;37795;53.236;5.704;2023-03-01T06:10:16;-0.80;79.00
51719;DHT22;37795;53.236;5.704;2023-03-01T06:12:42;-0.80;79.10
51719;DHT22;37795;53.236;5.704;2023-03-01T06:15:11;-0.80;79.00
51719;DHT22;37795;53.236;5.704;2023-03-01T06:17:38;-0.80;79.10
51719;DHT22;37795;53.236;5.704;2023-03-01T06:20:09;-0.70;79.20
51719;DHT22;37795;53.236;5.704;2023-03-01T06:22:35;-0.80;79.10
51719;DHT22;37795;53.236;5.704;2023-03-01T06:25:02;-0.80;79.10
51719;DHT22;37795;53.236;5.704;2023-03-01T06:27:28;-0.80;78.90
51719;DHT22;37795;53.236;5.704;2023-03-01T06:29:54;-0.90;79.00
51719;DHT22;37795;53.236;5.704;2023-03-01T06:32:19;-0.90;79.10
51719;DHT22;37795;53.236;5.704;2023-03-01T06:34:45;-0.90;79.10
51719;DHT22;37795;53.236;5.704;2023-03-01T06:37:11;-0.90;79.20
51719;DHT22;37795;53.236;5.704;2023-03-01T06:39:37;-0.90;79.20
51719;DHT22;37795;53.236;5.704;2023-03-01T06:42:03;-0.90;79.10
51719;DHT22;37795;53.236;5.704;2023-03-01T06:44:29;-0.90;79.10
51719;DHT22;37795;53.236;5.704;2023-03-01T06:46:54;-0.90;79.10
51719;DHT22;37795;53.236;5.704;2023-03-01T06:49:20;-0.90;79.10
51719;DHT22;37795;53.236;5.704;2023-03-01T06:57:35;-0.40;77.80
51719;DHT22;37795;53.236;5.704;2023-03-01T07:00:01;-0.90;78.80
51719;DHT22;37795;53.236;5.704;2023-03-01T07:02:27;-0.90;78.80
51719;DHT22;37795;53.236;5.704;2023-03-01T07:04:52;-0.90;78.60
51719;DHT22;37795;53.236;5.704;2023-03-01T07:07:18;-0.90;78.60
51719;DHT22;37795;53.236;5.704;2023-03-01T07:09:45;-0.80;78.60
51719;DHT22;37795;53.236;5.704;2023-03-01T07:12:11;-0.80;78.60
51719;DHT22;37795;53.236;5.704;2023-03-01T07:14:36;-0.80;78.60
51719;DHT22;37795;53.236;5.704;2023-03-01T07:17:02;-0.70;78.60
51719;DHT22;37795;53.236;5.704;2023-03-01T07:19:28;-0.70;78.50
51719;DHT22;37795;53.236;5.704;2023-03-01T07:21:53;-0.70;78.50
51719;DHT22;37795;53.236;5.704;2023-03-01T07:24:20;-0.60;78.60
51719;DHT22;37795;53.236;5.704;2023-03-01T07:26:50;-0.60;78.30
51719;DHT22;37795;53.236;5.704;2023-03-01T07:29:16;-1.00;78.00
51719;DHT22;37795;53.236;5.704;2023-03-01T07:31:42;-1.10;78.50
51719;DHT22;37795;53.236;5.704;2023-03-01T07:34:08;-0.90;79.60
51719;DHT22;37795;53.236;5.704;2023-03-01T07:36:33;-0.60;79.90
51719;DHT22;37795;53.236;5.704;2023-03-01T07:38:59;-0.40;79.90
51719;DHT22;37795;53.236;5.704;2023-03-01T07:41:27;-0.20;80.00
51719;DHT22;37795;53.236;5.704;2023-03-01T07:43:53;-0.10;79.80
51719;DHT22;37795;53.236;5.704;2023-03-01T07:46:19;-0.10;79.70
51719;DHT22;37795;53.236;5.704;2023-03-01T07:48:44;0.20;79.80
51719;DHT22;37795;53.236;5.704;2023-03-01T07:51:10;0.30;79.60
51719;DHT22;37795;53.236;5.704;2023-03-01T07:53:36;0.50;79.30
51719;DHT22;37795;53.236;5.704;2023-03-01T07:56:12;0.60;79.10
51719;DHT22;37795;53.236;5.704;2023-03-01T07:58:40;0.70;78.80
51719;DHT22;37795;53.236;5.704;2023-03-01T08:01:09;0.80;78.40
51719;DHT22;37795;53.236;5.704;2023-03-01T08:03:36;0.80;78.00
51719;DHT22;37795;53.236;5.704;2023-03-01T08:06:03;0.90;77.60
51719;DHT22;37795;53.236;5.704;2023-03-01T08:08:29;0.90;77.30
51719;DHT22;37795;53.236;5.704;2023-03-01T08:11:00;1.00;77.20
51719;DHT22;37795;53.236;5.704;2023-03-01T08:13:27;1.00;77.20
51719;DHT22;37795;53.236;5.704;2023-03-01T08:15:53;1.20;77.10
51719;DHT22;37795;53.236;5.704;2023-03-01T08:18:20;1.30;76.90
51719;DHT22;37795;53.236;5.704;2023-03-01T08:20:46;1.40;76.80
51719;DHT22;37795;53.236;5.704;2023-03-01T08:23:12;1.50;76.60
51719;DHT22;37795;53.236;5.704;2023-03-01T08:25:38;1.60;76.80
51719;DHT22;37795;53.236;5.704;2023-03-01T08:28:05;1.70;76.60
51719;DHT22;37795;53.236;5.704;2023-03-01T08:30:31;1.80;76.40
51719;DHT22;37795;53.236;5.704;2023-03-01T08:32:57;2.00;76.30
51719;DHT22;37795;53.236;5.704;2023-03-01T08:35:22;2.30;76.30
51719;DHT22;37795;53.236;5.704;2023-03-01T08:37:48;2.50;75.90
51719;DHT22;37795;53.236;5.704;2023-03-01T08:40:14;2.70;75.40
51719;DHT22;37795;53.236;5.704;2023-03-01T08:42:43;2.70;75.20
51719;DHT22;37795;53.236;5.704;2023-03-01T08:45:10;3.10;75.30
51719;DHT22;37795;53.236;5.704;2023-03-01T08:50:04;4.20;73.00
51719;DHT22;37795;53.236;5.704;2023-03-01T08:52:32;3.80;73.00
51719;DHT22;37795;53.236;5.704;2023-03-01T08:54:58;3.90;72.90
51719;DHT22;37795;53.236;5.704;2023-03-01T08:59:52;5.00;71.40
51719;DHT22;37795;53.236;5.704;2023-03-01T09:02:18;4.80;71.50
51719;DHT22;37795;53.236;5.704;2023-03-01T09:04:44;4.90;70.80
51719;DHT22;37795;53.236;5.704;2023-03-01T09:07:10;4.90;69.50
51719;DHT22;37795;53.236;5.704;2023-03-01T09:09:37;5.10;70.20
51719;DHT22;37795;53.236;5.704;2023-03-01T09:12:03;5.30;69.80
51719;DHT22;37795;53.236;5.704;2023-03-01T09:14:29;5.50;69.80
51719;DHT22;37795;53.236;5.704;2023-03-01T09:16:54;5.60;68.70
51719;DHT22;37795;53.236;5.704;2023-03-01T09:19:20;6.10;68.00
51719;DHT22;37795;53.236;5.704;2023-03-01T09:21:46;6.50;67.40
51719;DHT22;37795;53.236;5.704;2023-03-01T09:24:22;6.90;66.40
51719;DHT22;37795;53.236;5.704;2023-03-01T09:26:48;7.00;64.70
51719;DHT22;37795;53.236;5.704;2023-03-01T09:29:16;7.20;65.40
51719;DHT22;37795;53.236;5.704;2023-03-01T09:31:42;7.40;65.40
51719;DHT22;37795;53.236;5.704;2023-03-01T09:34:08;7.70;64.70
51719;DHT22;37795;53.236;5.704;2023-03-01T09:36:35;7.80;64.70
51719;DHT22;37795;53.236;5.704;2023-03-01T09:39:01;8.10;64.20
51719;DHT22;37795;53.236;5.704;2023-03-01T09:44:42;8.20;63.50
51719;DHT22;37795;53.236;5.704;2023-03-01T09:47:20;8.10;61.50
51719;DHT22;37795;53.236;5.704;2023-03-01T09:52:43;8.50;62.80
51719;DHT22;37795;53.236;5.704;2023-03-01T09:58:06;8.90;61.30
51719;DHT22;37795;53.236;5.704;2023-03-01T10:00:49;9.00;61.90
51719;DHT22;37795;53.236;5.704;2023-03-01T10:08:58;9.80;59.20
51719;DHT22;37795;53.236;5.704;2023-03-01T10:11:37;9.10;60.50
51719;DHT22;37795;53.236;5.704;2023-03-01T10:17:05;9.80;59.60
51719;DHT22;37795;53.236;5.704;2023-03-01T10:19:31;10.00;58.70
51719;DHT22;37795;53.236;5.704;2023-03-01T10:22:15;10.30;58.10
51719;DHT22;37795;53.236;5.704;2023-03-01T10:24:41;10.60;56.50
51719;DHT22;37795;53.236;5.704;2023-03-01T10:27:34;10.60;57.20
51719;DHT22;37795;53.236;5.704;2023-03-01T10:30:17;10.50;56.90
51719;DHT22;37795;53.236;5.704;2023-03-01T10:32:45;10.70;57.00
51719;DHT22;37795;53.236;5.704;2023-03-01T10:35:18;10.30;55.10
51719;DHT22;37795;53.236;5.704;2023-03-01T10:38:06;10.50;57.40
51719;DHT22;37795;53.236;5.704;2023-03-01T10:40:34;10.80;55.40
51719;DHT22;37795;53.236;5.704;2023-03-01T10:43:04;9.50;57.80
51719;DHT22;37795;53.236;5.704;2023-03-01T10:45:38;10.40;57.20
51719;DHT22;37795;53.236;5.704;2023-03-01T10:48:14;10.60;54.90
51719;DHT22;37795;53.236;5.704;2023-03-01T10:57:39;10.90;55.40
51719;DHT22;37795;53.236;5.704;2023-03-01T11:00:25;10.00;56.90
51719;DHT22;37795;53.236;5.704;2023-03-01T11:03:03;10.20;57.30
51719;DHT22;37795;53.236;5.704;2023-03-01T11:05:34;10.60;55.70
51719;DHT22;37795;53.236;5.704;2023-03-01T11:08:01;10.80;55.80
51719;DHT22;37795;53.236;5.704;2023-03-01T11:10:34;11.10;54.50
51719;DHT22;37795;53.236;5.704;2023-03-01T11:13:16;11.00;55.60
51719;DHT22;37795;53.236;5.704;2023-03-01T11:15:43;11.20;53.80
51719;DHT22;37795;53.236;5.704;2023-03-01T11:18:22;11.20;54.10
51719;DHT22;37795;53.236;5.704;2023-03-01T11:20:50;11.50;53.50
51719;DHT22;37795;53.236;5.704;2023-03-01T11:23:17;11.50;53.50
51719;DHT22;37795;53.236;5.704;2023-03-01T11:25:47;11.40;53.70
51719;DHT22;37795;53.236;5.704;2023-03-01T11:28:17;11.40;53.40
51719;DHT22;37795;53.236;5.704;2023-03-01T11:30:57;11.60;52.70
51719;DHT22;37795;53.236;5.704;2023-03-01T11:36:26;11.70;51.60
51719;DHT22;37795;53.236;5.704;2023-03-01T11:38:55;11.60;52.40
51719;DHT22;37795;53.236;5.704;2023-03-01T11:41:34;11.90;52.00
51719;DHT22;37795;53.236;5.704;2023-03-01T11:44:08;12.10;51.50
51719;DHT22;37795;53.236;5.704;2023-03-01T11:46:46;11.80;52.00
51719;DHT22;37795;53.236;5.704;2023-03-01T12:09:27;11.50;48.10
51719;DHT22;37795;53.236;5.704;2023-03-01T12:14:55;11.80;48.10
51719;DHT22;37795;53.236;5.704;2023-03-01T12:34:14;12.40;46.90
51719;DHT22;37795;53.236;5.704;2023-03-01T12:45:29;12.90;45.40
51719;DHT22;37795;53.236;5.704;2023-03-01T12:51:00;13.10;43.90
51719;DHT22;37795;53.236;5.704;2023-03-01T12:53:29;13.30;44.90
51719;DHT22;37795;53.236;5.704;2023-03-01T12:56:00;13.10;44.40
51719;DHT22;37795;53.236;5.704;2023-03-01T13:07:35;13.80;44.90
51719;DHT22;37795;53.236;5.704;2023-03-01T13:10:34;13.30;45.90
51719;DHT22;37795;53.236;5.704;2023-03-01T13:15:35;13.00;46.80
51719;DHT22;37795;53.236;5.704;2023-03-01T13:20:46;12.70;46.60
51719;DHT22;37795;53.236;5.704;2023-03-01T13:33:49;13.90;44.40
51719;DHT22;37795;53.236;5.704;2023-03-01T13:39:32;13.80;44.30
51719;DHT22;37795;53.236;5.704;2023-03-01T13:42:25;14.40;43.10
51719;DHT22;37795;53.236;5.704;2023-03-01T13:44:49;14.30;44.50
51719;DHT22;37795;53.236;5.704;2023-03-01T13:47:17;13.80;43.70
51719;DHT22;37795;53.236;5.704;2023-03-01T13:52:50;14.20;44.10
51719;DHT22;37795;53.236;5.704;2023-03-01T13:55:22;13.70;44.10
51719;DHT22;37795;53.236;5.704;2023-03-01T13:57:53;13.80;45.60
51719;DHT22;37795;53.236;5.704;2023-03-01T14:00:46;13.80;45.20
51719;DHT22;37795;53.236;5.704;2023-03-01T14:03:17;14.60;44.50
51719;DHT22;37795;53.236;5.704;2023-03-01T14:06:01;14.10;44.10
51719;DHT22;37795;53.236;5.704;2023-03-01T14:08:28;14.10;44.20
51719;DHT22;37795;53.236;5.704;2023-03-01T14:18:52;14.60;43.30
51719;DHT22;37795;53.236;5.704;2023-03-01T14:21:22;13.90;45.00
51719;DHT22;37795;53.236;5.704;2023-03-01T14:23:48;14.10;45.00
51719;DHT22;37795;53.236;5.704;2023-03-01T14:26:21;14.20;45.10
51719;DHT22;37795;53.236;5.704;2023-03-01T14:28:47;14.50;44.40
51719;DHT22;37795;53.236;5.704;2023-03-01T14:31:35;14.30;44.00
51719;DHT22;37795;53.236;5.704;2023-03-01T14:34:01;13.60;44.20
51719;DHT22;37795;53.236;5.704;2023-03-01T14:36:29;13.40;45.10
51719;DHT22;37795;53.236;5.704;2023-03-01T14:38:55;13.10;45.40
51719;DHT22;37795;53.236;5.704;2023-03-01T14:41:26;13.40;44.70
51719;DHT22;37795;53.236;5.704;2023-03-01T14:44:03;13.90;44.40
51719;DHT22;37795;53.236;5.704;2023-03-01T14:46:36;13.40;45.40
51719;DHT22;37795;53.236;5.704;2023-03-01T14:49:05;13.20;45.60
51719;DHT22;37795;53.236;5.704;2023-03-01T14:51:40;13.20;45.10
51719;DHT22;37795;53.236;5.704;2023-03-01T14:54:27;14.00;44.80
51719;DHT22;37795;53.236;5.704;2023-03-01T14:56:58;13.70;43.70
51719;DHT22;37795;53.236;5.704;2023-03-01T14:59:25;13.90;44.00
51719;DHT22;37795;53.236;5.704;2023-03-01T15:01:54;13.80;44.70
51719;DHT22;37795;53.236;5.704;2023-03-01T15:04:21;13.60;44.30
51719;DHT22;37795;53.236;5.704;2023-03-01T15:06:51;13.80;44.50
51719;DHT22;37795;53.236;5.704;2023-03-01T15:09:17;14.30;43.90
51719;DHT22;37795;53.236;5.704;2023-03-01T15:11:44;13.40;44.00
51719;DHT22;37795;53.236;5.704;2023-03-01T15:14:48;13.30;45.10
51719;DHT22;37795;53.236;5.704;2023-03-01T15:19:54;13.70;43.90
51719;DHT22;37795;53.236;5.704;2023-03-01T15:22:20;13.80;44.50
51719;DHT22;37795;53.236;5.704;2023-03-01T15:24:50;13.50;44.70
51719;DHT22;37795;53.236;5.704;2023-03-01T15:27:22;13.20;45.20
51719;DHT22;37795;53.236;5.704;2023-03-01T15:29:52;13.40;45.10
51719;DHT22;37795;53.236;5.704;2023-03-01T15:32:32;13.50;44.00
51719;DHT22;37795;53.236;5.704;2023-03-01T15:34:59;13.40;44.00
51719;DHT22;37795;53.236;5.704;2023-03-01T15:37:46;12.70;45.20
51719;DHT22;37795;53.236;5.704;2023-03-01T15:40:25;12.70;44.80
51719;DHT22;37795;53.236;5.704;2023-03-01T15:43:01;13.00;45.50
51719;DHT22;37795;53.236;5.704;2023-03-01T15:47:58;12.40;46.60
51719;DHT22;37795;53.236;5.704;2023-03-01T15:55:33;12.70;48.30
51719;DHT22;37795;53.236;5.704;2023-03-01T15:58:02;12.10;49.00
51719;DHT22;37795;53.236;5.704;2023-03-01T16:00:28;13.10;47.60
51719;DHT22;37795;53.236;5.704;2023-03-01T16:02:54;13.70;46.90
51719;DHT22;37795;53.236;5.704;2023-03-01T16:05:25;13.40;47.10
51719;DHT22;37795;53.236;5.704;2023-03-01T16:07:51;14.10;45.20
51719;DHT22;37795;53.236;5.704;2023-03-01T16:10:17;14.10;43.30
51719;DHT22;37795;53.236;5.704;2023-03-01T16:12:44;12.90;45.20
51719;DHT22;37795;53.236;5.704;2023-03-01T16:15:17;13.20;44.40
51719;DHT22;37795;53.236;5.704;2023-03-01T16:17:43;12.80;44.20
51719;DHT22;37795;53.236;5.704;2023-03-01T16:20:09;11.60;47.30
51719;DHT22;37795;53.236;5.704;2023-03-01T16:22:35;11.90;46.70
51719;DHT22;37795;53.236;5.704;2023-03-01T16:25:01;11.30;49.10
51719;DHT22;37795;53.236;5.704;2023-03-01T16:27:28;10.70;51.20
51719;DHT22;37795;53.236;5.704;2023-03-01T16:29:53;10.30;52.80
51719;DHT22;37795;53.236;5.704;2023-03-01T16:32:19;10.00;54.10
51719;DHT22;37795;53.236;5.704;2023-03-01T16:34:45;9.20;56.40
51719;DHT22;37795;53.236;5.704;2023-03-01T16:37:13;8.90;57.50
51719;DHT22;37795;53.236;5.704;2023-03-01T16:39:38;8.80;58.80
51719;DHT22;37795;53.236;5.704;2023-03-01T16:42:04;8.30;60.40
51719;DHT22;37795;53.236;5.704;2023-03-01T16:44:30;7.80;62.70
51719;DHT22;37795;53.236;5.704;2023-03-01T16:46:56;7.60;64.10
51719;DHT22;37795;53.236;5.704;2023-03-01T16:49:21;7.60;65.00
51719;DHT22;37795;53.236;5.704;2023-03-01T16:51:47;7.30;64.90
51719;DHT22;37795;53.236;5.704;2023-03-01T16:54:13;7.50;65.60
51719;DHT22;37795;53.236;5.704;2023-03-01T16:56:38;7.30;65.20
51719;DHT22;37795;53.236;5.704;2023-03-01T16:59:05;7.10;66.00
51719;DHT22;37795;53.236;5.704;2023-03-01T17:01:31;6.90;67.20
51719;DHT22;37795;53.236;5.704;2023-03-01T17:04:03;6.90;67.10
51719;DHT22;37795;53.236;5.704;2023-03-01T17:06:29;7.00;67.40
51719;DHT22;37795;53.236;5.704;2023-03-01T17:08:56;6.90;67.90
51719;DHT22;37795;53.236;5.704;2023-03-01T17:11:22;6.80;67.30
51719;DHT22;37795;53.236;5.704;2023-03-01T17:13:48;6.90;67.80
51719;DHT22;37795;53.236;5.704;2023-03-01T17:16:16;6.70;68.00
51719;DHT22;37795;53.236;5.704;2023-03-01T17:18:42;6.40;68.50
51719;DHT22;37795;53.236;5.704;2023-03-01T17:21:09;6.40;68.50
51719;DHT22;37795;53.236;5.704;2023-03-01T17:23:36;6.40;69.00
51719;DHT22;37795;53.236;5.704;2023-03-01T17:26:02;6.40;69.00
51719;DHT22;37795;53.236;5.704;2023-03-01T17:28:30;6.20;69.40
51719;DHT22;37795;53.236;5.704;2023-03-01T17:30:58;6.20;69.40
51719;DHT22;37795;53.236;5.704;2023-03-01T17:33:24;6.10;70.00
51719;DHT22;37795;53.236;5.704;2023-03-01T17:35:50;6.10;69.80
51719;DHT22;37795;53.236;5.704;2023-03-01T17:38:16;6.00;70.40
51719;DHT22;37795;53.236;5.704;2023-03-01T17:40:43;6.10;70.30
51719;DHT22;37795;53.236;5.704;2023-03-01T17:43:11;5.90;70.20
51719;DHT22;37795;53.236;5.704;2023-03-01T17:45:37;5.90;70.60
51719;DHT22;37795;53.236;5.704;2023-03-01T17:48:04;5.80;70.60
51719;DHT22;37795;53.236;5.704;2023-03-01T17:50:30;5.70;71.30
51719;DHT22;37795;53.236;5.704;2023-03-01T17:52:56;5.90;71.00
51719;DHT22;37795;53.236;5.704;2023-03-01T17:55:23;5.70;71.10
51719;DHT22;37795;53.236;5.704;2023-03-01T17:57:49;5.50;71.70
51719;DHT22;37795;53.236;5.704;2023-03-01T18:00:15;5.60;71.30
51719;DHT22;37795;53.236;5.704;2023-03-01T18:02:42;5.40;71.20
51719;DHT22;37795;53.236;5.704;2023-03-01T18:05:09;5.50;71.70
51719;DHT22;37795;53.236;5.704;2023-03-01T18:07:35;5.40;72.00
51719;DHT22;37795;53.236;5.704;2023-03-01T18:10:01;5.30;72.40
51719;DHT22;37795;53.236;5.704;2023-03-01T18:12:27;5.20;73.00
51719;DHT22;37795;53.236;5.704;2023-03-01T18:14:53;5.20;73.00
51719;DHT22;37795;53.236;5.704;2023-03-01T18:17:19;5.20;72.90